Terminal Aerodrome Forecast
Issued by NWS

Home | Current Version | Previous Version | Text Only | Print | Product List | Glossary Off
Versions: 1 2 3 4 5 6 7 8 9 10 11 12 13 14 15 16 17 18

000
FTUS43 KOAX 231720
TAFCDR
TAF
KCDR 231720Z 2318/2418 31018G28KT P6SM BKN090
     FM232000 31025G40KT P6SM SCT090
     FM240100 30018G26KT P6SM SCT090=

USA.gov is the U.S. government's official web portal to all federal, state and local government web resources and services.